Main page
METAR-TAF:

METAR-TAF

Airports :

Dundee Airport

Dundee, Scotland

latitude: 56-27N, longitude: 003-01W, elevation: 4 m

Current weather observation

The report was made 28 minutes ago, at 17:20 UTC
Wind 4 kt from the Southeast, varying between East and South
Temperature 12°C
Humidity 82%
Pressure 1013 hPa
Visibility 10 km or more
Broken clouds at a height of 2900 ft

METAR: EGPN 151720Z 14004KT 100V170 9999 BKN029 12/09 Q1013

Time: 17:48 (17:48 UTC)

Forecast

The report was made 58 minutes ago, at 16:50 UTC
Forecast valid from 15 at 18 UTC to 15 at 21 UTC
Wind 7 kt from the South
Visibility 10 km or more
Few clouds at a height of 4500 ft
Probability 40% :
Temporary
from 15 at 19 UTC to 15 at 21 UTC
Wind 18 kt from the South/Southwest with gusts up to 28 kt
Visibility: 8000 m
light rain

TAF: EGPN 151650Z 1518/1521 19007KT 9999 FEW045 PROB40 TEMPO 1519/1521 21018G28KT 8000 -RA

Weather observations and forecasts of more than 4000 airports (METAR and TAF reports).

The available stations are represented by yellow and red dots on the map.

Hover mouse over dot to see the name of the station.

Then click to see weather observations and forecasts.

To change the map : click on the green buttons with a black cross to zoom in, on the green button with a dash to zoom out, or on the green arrows for adjacent maps.


METAR-TAF: